createdAt,value
2023-03-22T00:00:58.667Z,9.50
2023-03-22T00:03:00.436Z,9.50
2023-03-22T00:05:02.094Z,9.50
2023-03-22T00:07:03.766Z,9.40
2023-03-22T00:09:05.712Z,9.50
2023-03-22T00:11:07.579Z,9.50
2023-03-22T00:13:10.225Z,9.50
2023-03-22T00:15:12.344Z,9.40
2023-03-22T00:17:13.957Z,9.50
2023-03-22T00:19:17.420Z,9.40
2023-03-22T00:21:19.153Z,9.40
2023-03-22T00:23:21.048Z,9.40
2023-03-22T00:25:23.204Z,9.30
2023-03-22T00:27:24.912Z,9.30
2023-03-22T00:29:26.646Z,9.30
2023-03-22T00:31:28.401Z,9.30
2023-03-22T00:33:30.789Z,9.30
2023-03-22T00:35:33.062Z,9.40
2023-03-22T00:37:38.645Z,9.30
2023-03-22T00:39:40.336Z,9.30
2023-03-22T00:41:42.003Z,9.20
2023-03-22T00:43:43.962Z,9.20
2023-03-22T00:45:45.756Z,9.20
2023-03-22T00:47:47.463Z,9.10
2023-03-22T00:49:49.330Z,9.00
2023-03-22T00:51:51.359Z,9.00
2023-03-22T00:53:54.103Z,9.10
2023-03-22T00:55:56.968Z,9.20
2023-03-22T00:57:58.830Z,9.20
2023-03-22T01:00:07.935Z,9.20
2023-03-22T01:02:13.304Z,9.20
2023-03-22T01:04:18.041Z,9.20
2023-03-22T01:06:19.910Z,9.20
2023-03-22T01:08:22.653Z,9.20
2023-03-22T01:10:24.416Z,9.10
2023-03-22T01:12:27.045Z,9.00
2023-03-22T01:14:28.709Z,9.00
2023-03-22T01:16:30.355Z,9.00
2023-03-22T01:18:32.047Z,9.10
2023-03-22T01:20:34.280Z,9.00
2023-03-22T01:22:35.997Z,8.90
2023-03-22T01:24:37.926Z,8.90
2023-03-22T01:26:39.632Z,8.80
2023-03-22T01:28:41.373Z,8.80
2023-03-22T01:30:43.204Z,8.70
2023-03-22T01:32:44.958Z,8.60
2023-03-22T01:34:46.612Z,8.50
2023-03-22T01:36:50.219Z,8.50
2023-03-22T01:38:51.870Z,8.40
2023-03-22T01:40:53.510Z,8.30
2023-03-22T01:42:55.802Z,8.30
2023-03-22T01:45:16.629Z,8.30
2023-03-22T01:47:18.239Z,8.30
2023-03-22T01:49:23.001Z,8.20
2023-03-22T01:51:28.091Z,8.10
2023-03-22T01:53:31.517Z,8.10
2023-03-22T01:55:33.449Z,8.10
2023-03-22T01:57:37.534Z,8.10
2023-03-22T01:59:40.805Z,8.00
2023-03-22T02:01:42.790Z,8.00
2023-03-22T02:03:53.004Z,7.90
2023-03-22T02:05:54.745Z,7.80
2023-03-22T02:07:56.535Z,7.80
2023-03-22T02:09:58.635Z,7.70
2023-03-22T02:12:06.417Z,7.60
2023-03-22T02:14:36.928Z,7.70
2023-03-22T02:16:41.618Z,7.60
2023-03-22T02:18:46.362Z,7.50
2023-03-22T02:21:02.402Z,7.50
2023-03-22T02:23:04.232Z,7.40
2023-03-22T02:25:06.197Z,7.40
2023-03-22T02:27:10.593Z,7.50
2023-03-22T02:29:15.216Z,7.50
2023-03-22T02:31:22.982Z,7.40
2023-03-22T02:33:43.150Z,7.40
2023-03-22T02:35:44.703Z,7.40
2023-03-22T02:37:46.292Z,7.30
2023-03-22T02:39:53.672Z,7.30
2023-03-22T02:42:12.157Z,7.20
2023-03-22T02:44:16.928Z,7.30
2023-03-22T02:46:22.719Z,7.30
2023-03-22T02:48:32.547Z,7.20
2023-03-22T02:50:40.649Z,7.20
2023-03-22T02:52:51.416Z,7.30
2023-03-22T02:54:53.042Z,7.30
2023-03-22T02:57:04.318Z,7.20
2023-03-22T02:59:06.729Z,7.20
2023-03-22T03:01:10.221Z,7.20
2023-03-22T03:03:12.652Z,7.20
2023-03-22T03:05:14.986Z,7.20
2023-03-22T03:07:22.184Z,7.10
2023-03-22T03:09:24.580Z,7.10
2023-03-22T03:11:26.284Z,7.00
2023-03-22T03:13:27.862Z,7.00
2023-03-22T03:15:29.556Z,6.90
2023-03-22T03:17:37.462Z,6.90
2023-03-22T03:19:44.535Z,6.90
2023-03-22T03:21:55.034Z,6.90
2023-03-22T03:23:59.419Z,6.90
2023-03-22T03:26:10.136Z,6.90
2023-03-22T03:28:30.227Z,6.80
2023-03-22T03:30:35.022Z,6.80
2023-03-22T03:32:42.014Z,6.80
2023-03-22T03:34:43.639Z,6.80
2023-03-22T03:37:05.738Z,6.80
2023-03-22T03:39:09.835Z,7.00
2023-03-22T03:41:13.999Z,6.90
2023-03-22T03:43:16.372Z,6.90
2023-03-22T03:45:18.971Z,6.80
2023-03-22T03:47:24.234Z,6.70
2023-03-22T03:49:27.153Z,6.80
2023-03-22T03:51:45.634Z,6.80
2023-03-22T03:53:47.304Z,6.90
2023-03-22T03:55:50.233Z,6.80
2023-03-22T03:57:51.977Z,6.80
2023-03-22T03:59:54.710Z,6.80
2023-03-22T04:01:56.364Z,6.70
2023-03-22T04:03:57.972Z,6.80
2023-03-22T04:05:59.815Z,6.80
2023-03-22T04:08:01.742Z,6.80
2023-03-22T04:10:03.895Z,6.70
2023-03-22T04:12:09.698Z,6.60
2023-03-22T04:14:11.265Z,6.60
2023-03-22T04:16:12.986Z,6.60
2023-03-22T04:18:15.676Z,6.60
2023-03-22T04:20:17.733Z,6.60
2023-03-22T04:22:19.336Z,6.60
2023-03-22T04:24:21.904Z,6.60
2023-03-22T04:26:26.615Z,6.60
2023-03-22T04:28:28.382Z,6.60
2023-03-22T04:30:36.058Z,6.60
2023-03-22T04:32:38.290Z,6.50
2023-03-22T04:34:39.921Z,6.50
2023-03-22T04:36:41.843Z,6.40
2023-03-22T04:38:43.946Z,6.40
2023-03-22T04:40:46.687Z,6.30
2023-03-22T04:42:48.447Z,6.30
2023-03-22T04:44:50.294Z,6.40
2023-03-22T04:46:51.895Z,6.50
2023-03-22T04:48:53.540Z,6.50
2023-03-22T04:50:57.290Z,6.40
2023-03-22T04:52:59.982Z,6.40
2023-03-22T04:55:01.603Z,6.40
2023-03-22T04:57:03.585Z,6.40
2023-03-22T04:59:05.260Z,6.40
2023-03-22T05:01:07.533Z,6.30
2023-03-22T05:03:13.641Z,6.40
2023-03-22T05:05:15.250Z,6.30
2023-03-22T05:07:18.966Z,6.20
2023-03-22T05:09:23.248Z,6.10
2023-03-22T05:11:27.979Z,6.10
2023-03-22T05:13:29.582Z,6.10
2023-03-22T05:15:32.787Z,6.10
2023-03-22T05:17:34.413Z,6.00
2023-03-22T05:19:36.449Z,6.00
2023-03-22T05:21:40.311Z,6.00
2023-03-22T05:23:42.779Z,6.10
2023-03-22T05:25:46.796Z,6.10
2023-03-22T05:27:50.252Z,6.10
2023-03-22T05:29:52.244Z,6.10
2023-03-22T05:31:53.857Z,6.10
2023-03-22T05:33:55.658Z,6.10
2023-03-22T05:35:57.355Z,6.10
2023-03-22T05:38:00.239Z,6.10
2023-03-22T05:40:02.459Z,6.00
2023-03-22T05:42:04.077Z,5.90
2023-03-22T05:44:05.685Z,6.00
2023-03-22T05:46:07.984Z,6.00
2023-03-22T05:48:09.699Z,6.00
2023-03-22T05:50:15.958Z,5.90
2023-03-22T05:52:19.101Z,5.90
2023-03-22T05:54:20.670Z,5.90
2023-03-22T05:56:24.279Z,5.90
2023-03-22T05:58:30.600Z,5.90
2023-03-22T06:00:32.297Z,5.90
2023-03-22T06:02:33.927Z,5.90
2023-03-22T06:04:35.599Z,5.90
2023-03-22T06:06:37.785Z,5.90
2023-03-22T06:08:39.658Z,5.90
2023-03-22T06:10:41.930Z,5.90
2023-03-22T06:12:43.946Z,5.90
2023-03-22T06:14:45.914Z,5.90
2023-03-22T06:16:47.902Z,6.00
2023-03-22T06:18:49.620Z,6.00
2023-03-22T06:20:51.302Z,6.00
2023-03-22T06:22:52.926Z,6.00
2023-03-22T06:24:54.535Z,6.00
2023-03-22T06:26:56.187Z,6.00
2023-03-22T06:28:57.997Z,6.10
2023-03-22T06:31:05.642Z,6.10
2023-03-22T06:33:07.304Z,6.10
2023-03-22T06:35:08.979Z,6.20
2023-03-22T06:37:10.554Z,6.20
2023-03-22T06:39:12.318Z,6.20
2023-03-22T06:41:14.139Z,6.30
2023-03-22T06:43:16.881Z,6.30
2023-03-22T06:45:18.514Z,6.40
2023-03-22T06:47:21.274Z,6.50
2023-03-22T06:49:23.080Z,6.60
2023-03-22T06:51:24.736Z,6.70
2023-03-22T06:53:26.318Z,6.80
2023-03-22T06:55:27.963Z,6.90
2023-03-22T06:57:29.613Z,7.00
2023-03-22T06:59:32.266Z,7.00
2023-03-22T07:01:34.012Z,7.10
2023-03-22T07:03:36.840Z,7.20
2023-03-22T07:05:38.430Z,7.20
2023-03-22T07:07:40.149Z,7.30
2023-03-22T07:09:41.964Z,7.40
2023-03-22T07:11:43.733Z,7.50
2023-03-22T07:13:45.564Z,7.60
2023-03-22T07:15:47.242Z,7.70
2023-03-22T07:17:48.888Z,7.70
2023-03-22T07:19:50.490Z,7.80
2023-03-22T07:21:52.112Z,7.90
2023-03-22T07:23:57.750Z,7.90
2023-03-22T07:26:01.472Z,8.00
2023-03-22T07:28:03.195Z,8.20
2023-03-22T07:30:05.749Z,8.30
2023-03-22T07:32:08.201Z,8.50
2023-03-22T07:34:09.894Z,8.60
2023-03-22T07:36:11.642Z,8.60
2023-03-22T07:38:13.291Z,8.60
2023-03-22T07:40:15.338Z,8.80
2023-03-22T07:42:17.296Z,8.90
2023-03-22T07:44:18.945Z,8.90
2023-03-22T07:46:20.530Z,9.00
2023-03-22T07:48:23.604Z,9.10
2023-03-22T07:50:25.573Z,9.30
2023-03-22T07:52:28.163Z,9.30
2023-03-22T07:54:33.908Z,9.40
2023-03-22T07:56:36.173Z,9.50
2023-03-22T07:58:37.893Z,9.60
2023-03-22T08:00:39.648Z,9.70
2023-03-22T08:02:41.640Z,9.80
2023-03-22T08:04:43.235Z,9.90
2023-03-22T08:06:46.451Z,10.00
2023-03-22T08:08:49.472Z,10.10
2023-03-22T08:10:51.885Z,10.20
2023-03-22T08:12:53.534Z,10.20
2023-03-22T08:14:55.190Z,10.30
2023-03-22T08:16:56.776Z,10.40
2023-03-22T08:18:58.814Z,10.50
2023-03-22T08:21:00.575Z,10.60
2023-03-22T08:23:02.225Z,10.70
2023-03-22T08:25:04.672Z,10.70
2023-03-22T08:27:06.276Z,10.80
2023-03-22T08:29:08.029Z,10.90
2023-03-22T08:31:15.808Z,11.00
2023-03-22T08:33:17.663Z,11.10
2023-03-22T08:35:19.506Z,11.20
2023-03-22T08:37:21.211Z,11.20
2023-03-22T08:39:24.721Z,11.30
2023-03-22T08:41:26.547Z,11.40
2023-03-22T08:43:28.137Z,11.50
2023-03-22T08:45:29.858Z,11.70
2023-03-22T08:47:31.562Z,11.80
2023-03-22T08:49:33.390Z,11.80
2023-03-22T08:51:35.011Z,11.80
2023-03-22T08:53:36.757Z,11.90
2023-03-22T08:55:48.456Z,12.00
2023-03-22T08:57:50.518Z,12.10
2023-03-22T08:59:57.654Z,12.20
2023-03-22T09:01:59.518Z,12.30
2023-03-22T09:04:01.303Z,12.40
2023-03-22T09:06:03.193Z,12.60
2023-03-22T09:08:06.803Z,12.60
2023-03-22T09:10:08.788Z,12.60
2023-03-22T09:12:10.471Z,12.70
2023-03-22T09:14:12.164Z,12.80
2023-03-22T09:16:14.068Z,12.90
2023-03-22T09:18:16.216Z,13.10
2023-03-22T09:20:18.378Z,13.30
2023-03-22T09:22:20.330Z,13.50
2023-03-22T09:24:23.185Z,13.50
2023-03-22T09:26:25.647Z,13.70
2023-03-22T09:28:27.766Z,13.70
2023-03-22T09:30:29.760Z,13.90
2023-03-22T09:32:31.422Z,14.20
2023-03-22T09:34:33.332Z,14.40
2023-03-22T09:36:34.973Z,14.60
2023-03-22T09:38:36.620Z,14.50
2023-03-22T09:40:43.636Z,14.50
2023-03-22T09:42:46.482Z,14.60
2023-03-22T09:44:48.544Z,14.60
2023-03-22T09:46:52.266Z,14.70
2023-03-22T09:48:53.891Z,14.70
2023-03-22T09:50:56.273Z,14.80
2023-03-22T09:52:58.479Z,14.90
2023-03-22T09:55:00.394Z,14.80
2023-03-22T09:57:06.651Z,14.90
2023-03-22T09:59:20.305Z,15.10
2023-03-22T10:01:24.654Z,15.20
2023-03-22T10:03:29.145Z,15.20
2023-03-22T10:05:36.903Z,15.40
2023-03-22T10:07:47.963Z,15.60
2023-03-22T10:10:09.498Z,15.70
2023-03-22T10:12:31.231Z,15.90
2023-03-22T10:14:39.352Z,16.00
2023-03-22T10:16:41.467Z,15.90
2023-03-22T10:18:48.398Z,16.20
2023-03-22T10:20:54.506Z,16.40
2023-03-22T10:22:58.489Z,16.30
2023-03-22T10:25:00.836Z,16.40
2023-03-22T10:27:02.922Z,16.50
2023-03-22T10:29:24.023Z,16.60
2023-03-22T10:31:26.646Z,16.50
2023-03-22T10:33:28.247Z,16.50
2023-03-22T10:35:30.815Z,16.30
2023-03-22T10:37:34.293Z,16.30
2023-03-22T10:39:39.701Z,16.20
2023-03-22T10:41:41.709Z,16.40
2023-03-22T10:43:45.397Z,16.50
2023-03-22T10:45:47.090Z,16.70
2023-03-22T10:47:59.473Z,16.80
2023-03-22T10:50:12.294Z,17.40
2023-03-22T10:52:40.938Z,17.70
2023-03-22T10:54:46.731Z,17.90
2023-03-22T10:56:51.698Z,17.70
2023-03-22T10:59:12.737Z,18.00
2023-03-22T11:01:22.891Z,18.10
2023-03-22T11:03:37.355Z,18.00
2023-03-22T11:06:09.281Z,17.90
2023-03-22T11:08:19.431Z,18.10
2023-03-22T11:10:29.487Z,18.20
2023-03-22T11:12:33.911Z,18.40
2023-03-22T11:14:43.519Z,18.60
2023-03-22T11:17:06.522Z,18.70
2023-03-22T11:19:16.459Z,19.10
2023-03-22T11:21:39.041Z,18.90
2023-03-22T11:26:57.174Z,19.40
2023-03-22T11:29:23.063Z,19.60
2023-03-22T11:31:26.109Z,19.20
2023-03-22T11:33:29.581Z,19.20
2023-03-22T11:35:43.366Z,19.00
2023-03-22T11:37:47.480Z,19.20
2023-03-22T11:39:53.089Z,19.10
2023-03-22T11:42:01.512Z,19.10
2023-03-22T11:44:07.714Z,19.40
2023-03-22T11:46:10.813Z,19.00
2023-03-22T11:48:18.447Z,19.10
2023-03-22T11:50:30.860Z,19.80
2023-03-22T11:52:32.575Z,21.20
2023-03-22T11:54:35.558Z,22.30
2023-03-22T11:56:41.084Z,23.70
2023-03-22T11:58:44.183Z,23.60
2023-03-22T12:00:46.625Z,25.80
2023-03-22T12:03:14.777Z,25.10
2023-03-22T12:05:25.591Z,24.50
2023-03-22T12:07:28.879Z,24.00
2023-03-22T12:09:41.226Z,22.60
2023-03-22T12:11:54.853Z,21.90
2023-03-22T12:14:04.991Z,21.60
2023-03-22T12:16:07.998Z,21.60
2023-03-22T12:18:09.942Z,22.80
2023-03-22T12:20:23.020Z,21.70
2023-03-22T12:22:27.843Z,21.50
2023-03-22T12:24:31.246Z,22.80
2023-03-22T12:26:33.761Z,23.00
2023-03-22T12:28:39.330Z,22.80
2023-03-22T12:30:43.413Z,23.50
2023-03-22T12:32:47.342Z,23.30
2023-03-22T12:34:51.097Z,23.20
2023-03-22T12:36:56.415Z,23.20
2023-03-22T12:38:59.991Z,23.00
2023-03-22T12:41:03.223Z,23.40
2023-03-22T12:43:04.883Z,22.00
2023-03-22T12:45:18.224Z,21.30
2023-03-22T12:47:25.845Z,21.70
2023-03-22T12:49:40.429Z,21.80
2023-03-22T12:51:43.100Z,22.50
2023-03-22T12:53:47.216Z,22.90
2023-03-22T12:55:49.405Z,23.10
2023-03-22T12:57:52.481Z,22.80
2023-03-22T12:59:55.778Z,22.10
2023-03-22T13:02:00.679Z,23.20
2023-03-22T13:04:22.315Z,24.80
2023-03-22T13:06:53.584Z,22.80
2023-03-22T13:09:04.295Z,22.20
2023-03-22T13:11:06.417Z,22.50
2023-03-22T13:13:12.109Z,23.00
2023-03-22T13:15:13.797Z,24.30
2023-03-22T13:17:16.009Z,24.70
2023-03-22T13:19:29.518Z,24.50
2023-03-22T13:21:31.989Z,24.80
2023-03-22T13:23:33.688Z,25.10
2023-03-22T13:25:37.021Z,27.10
2023-03-22T13:27:44.864Z,27.20
2023-03-22T13:29:49.070Z,28.50
2023-03-22T13:31:57.909Z,28.20
2023-03-22T13:34:01.167Z,27.00
2023-03-22T13:36:07.723Z,27.20
2023-03-22T13:38:29.637Z,28.10
2023-03-22T13:40:51.558Z,28.40
2023-03-22T13:42:54.378Z,26.30
2023-03-22T13:45:00.053Z,26.00
2023-03-22T13:47:01.991Z,24.70
2023-03-22T13:49:04.388Z,23.20
2023-03-22T13:51:12.174Z,23.10
2023-03-22T13:53:23.320Z,23.10
2023-03-22T13:55:37.430Z,22.60
2023-03-22T13:57:44.562Z,23.20
2023-03-22T14:00:09.637Z,22.40
2023-03-22T14:02:24.885Z,24.40
2023-03-22T14:04:34.860Z,25.90
2023-03-22T14:06:52.383Z,25.40
2023-03-22T14:09:02.434Z,25.00
2023-03-22T14:11:10.445Z,26.50
2023-03-22T14:13:14.966Z,27.20
2023-03-22T14:15:27.560Z,25.30
2023-03-22T14:17:44.396Z,25.60
2023-03-22T14:19:46.432Z,25.80
